sensor_id;sensor_type;location;lat;lon;timestamp;P1;durP1;ratioP1;P2;durP2;ratioP2
3875;SDS011;1953;51.222;6.624;2023-10-09T00:02:13;37.27;;;18.10;;
3875;SDS011;1953;51.222;6.624;2023-10-09T00:06:56;37.03;;;18.90;;
3875;SDS011;1953;51.222;6.624;2023-10-09T00:11:40;37.47;;;18.17;;
3875;SDS011;1953;51.222;6.624;2023-10-09T00:18:59;32.33;;;16.50;;
3875;SDS011;1953;51.222;6.624;2023-10-09T00:23:54;25.80;;;14.00;;
3875;SDS011;1953;51.222;6.624;2023-10-09T00:28:40;26.80;;;14.20;;
3875;SDS011;1953;51.222;6.624;2023-10-09T00:33:25;31.37;;;13.80;;
3875;SDS011;1953;51.222;6.624;2023-10-09T00:38:11;24.57;;;13.03;;
3875;SDS011;1953;51.222;6.624;2023-10-09T00:42:57;28.10;;;13.53;;
3875;SDS011;1953;51.222;6.624;2023-10-09T00:47:46;20.30;;;11.33;;
3875;SDS011;1953;51.222;6.624;2023-10-09T00:52:30;21.30;;;12.73;;
3875;SDS011;1953;51.222;6.624;2023-10-09T00:57:19;21.53;;;12.10;;
3875;SDS011;1953;51.222;6.624;2023-10-09T01:02:05;22.97;;;10.73;;
3875;SDS011;1953;51.222;6.624;2023-10-09T01:06:48;24.80;;;12.07;;
3875;SDS011;1953;51.222;6.624;2023-10-09T01:11:46;21.20;;;11.87;;
3875;SDS011;1953;51.222;6.624;2023-10-09T01:16:33;20.80;;;11.13;;
3875;SDS011;1953;51.222;6.624;2023-10-09T01:20:58;18.70;;;10.27;;
3875;SDS011;1953;51.222;6.624;2023-10-09T01:25:44;20.07;;;10.57;;
3875;SDS011;1953;51.222;6.624;2023-10-09T01:30:30;21.70;;;10.67;;
3875;SDS011;1953;51.222;6.624;2023-10-09T01:35:14;21.33;;;10.27;;
3875;SDS011;1953;51.222;6.624;2023-10-09T01:40:03;29.20;;;10.63;;
3875;SDS011;1953;51.222;6.624;2023-10-09T01:45:08;18.43;;;10.80;;
3875;SDS011;1953;51.222;6.624;2023-10-09T01:49:52;18.00;;;10.53;;
3875;SDS011;1953;51.222;6.624;2023-10-09T01:59:18;15.13;;;10.70;;
3875;SDS011;1953;51.222;6.624;2023-10-09T02:04:03;20.63;;;11.57;;
3875;SDS011;1953;51.222;6.624;2023-10-09T02:08:54;17.10;;;10.40;;
3875;SDS011;1953;51.222;6.624;2023-10-09T02:13:37;19.03;;;10.47;;
3875;SDS011;1953;51.222;6.624;2023-10-09T02:18:22;16.23;;;10.40;;
3875;SDS011;1953;51.222;6.624;2023-10-09T02:23:21;16.43;;;10.20;;
3875;SDS011;1953;51.222;6.624;2023-10-09T02:28:06;17.00;;;9.77;;
3875;SDS011;1953;51.222;6.624;2023-10-09T02:32:48;17.10;;;10.17;;
3875;SDS011;1953;51.222;6.624;2023-10-09T02:37:34;18.43;;;10.57;;
3875;SDS011;1953;51.222;6.624;2023-10-09T02:42:20;17.53;;;10.03;;
3875;SDS011;1953;51.222;6.624;2023-10-09T02:47:05;17.83;;;10.43;;
3875;SDS011;1953;51.222;6.624;2023-10-09T02:51:53;15.27;;;10.17;;
3875;SDS011;1953;51.222;6.624;2023-10-09T02:56:35;21.07;;;10.80;;
3875;SDS011;1953;51.222;6.624;2023-10-09T03:01:24;21.03;;;11.00;;
3875;SDS011;1953;51.222;6.624;2023-10-09T03:06:07;20.50;;;10.87;;
3875;SDS011;1953;51.222;6.624;2023-10-09T03:10:53;18.70;;;9.87;;
3875;SDS011;1953;51.222;6.624;2023-10-09T03:15:38;17.53;;;10.30;;
3875;SDS011;1953;51.222;6.624;2023-10-09T03:20:23;19.30;;;10.60;;
3875;SDS011;1953;51.222;6.624;2023-10-09T03:25:06;17.33;;;10.63;;
3875;SDS011;1953;51.222;6.624;2023-10-09T03:29:52;18.13;;;10.97;;
3875;SDS011;1953;51.222;6.624;2023-10-09T03:34:35;19.40;;;11.60;;
3875;SDS011;1953;51.222;6.624;2023-10-09T03:39:19;19.10;;;11.07;;
3875;SDS011;1953;51.222;6.624;2023-10-09T03:44:05;18.20;;;11.40;;
3875;SDS011;1953;51.222;6.624;2023-10-09T03:48:48;22.50;;;11.73;;
3875;SDS011;1953;51.222;6.624;2023-10-09T03:53:32;17.67;;;10.90;;
3875;SDS011;1953;51.222;6.624;2023-10-09T03:58:18;18.67;;;11.40;;
3875;SDS011;1953;51.222;6.624;2023-10-09T04:03:02;16.50;;;10.47;;
3875;SDS011;1953;51.222;6.624;2023-10-09T04:07:46;18.53;;;10.63;;
3875;SDS011;1953;51.222;6.624;2023-10-09T04:12:30;23.77;;;11.77;;
3875;SDS011;1953;51.222;6.624;2023-10-09T04:17:16;19.40;;;10.10;;
3875;SDS011;1953;51.222;6.624;2023-10-09T04:22:17;19.10;;;10.37;;
3875;SDS011;1953;51.222;6.624;2023-10-09T04:27:07;16.93;;;10.40;;
3875;SDS011;1953;51.222;6.624;2023-10-09T04:31:50;22.50;;;12.50;;
3875;SDS011;1953;51.222;6.624;2023-10-09T04:36:37;18.07;;;11.67;;
3875;SDS011;1953;51.222;6.624;2023-10-09T04:41:27;20.27;;;11.80;;
3875;SDS011;1953;51.222;6.624;2023-10-09T04:46:13;21.43;;;11.90;;
3875;SDS011;1953;51.222;6.624;2023-10-09T04:51:04;22.07;;;11.37;;
3875;SDS011;1953;51.222;6.624;2023-10-09T04:56:03;18.27;;;11.70;;
3875;SDS011;1953;51.222;6.624;2023-10-09T05:00:56;24.47;;;12.30;;
3875;SDS011;1953;51.222;6.624;2023-10-09T05:05:52;19.13;;;11.13;;
3875;SDS011;1953;51.222;6.624;2023-10-09T05:11:01;18.47;;;11.23;;
3875;SDS011;1953;51.222;6.624;2023-10-09T05:15:57;23.87;;;12.10;;
3875;SDS011;1953;51.222;6.624;2023-10-09T05:20:40;20.80;;;11.20;;
3875;SDS011;1953;51.222;6.624;2023-10-09T05:25:58;20.10;;;12.10;;
3875;SDS011;1953;51.222;6.624;2023-10-09T05:31:01;18.87;;;12.93;;
3875;SDS011;1953;51.222;6.624;2023-10-09T05:35:48;22.10;;;11.57;;
3875;SDS011;1953;51.222;6.624;2023-10-09T05:40:46;20.87;;;12.23;;
3875;SDS011;1953;51.222;6.624;2023-10-09T05:45:34;20.07;;;12.50;;
3875;SDS011;1953;51.222;6.624;2023-10-09T05:50:47;23.00;;;12.17;;
3875;SDS011;1953;51.222;6.624;2023-10-09T05:55:51;18.30;;;11.63;;
3875;SDS011;1953;51.222;6.624;2023-10-09T06:00:50;21.77;;;12.87;;
3875;SDS011;1953;51.222;6.624;2023-10-09T06:05:52;20.93;;;11.73;;
3875;SDS011;1953;51.222;6.624;2023-10-09T06:10:45;18.40;;;11.63;;
3875;SDS011;1953;51.222;6.624;2023-10-09T06:15:28;20.23;;;11.53;;
3875;SDS011;1953;51.222;6.624;2023-10-09T06:20:30;22.17;;;12.17;;
3875;SDS011;1953;51.222;6.624;2023-10-09T06:25:43;24.20;;;11.10;;
3875;SDS011;1953;51.222;6.624;2023-10-09T06:30:34;18.70;;;11.90;;
3875;SDS011;1953;51.222;6.624;2023-10-09T06:35:17;18.77;;;11.73;;
3875;SDS011;1953;51.222;6.624;2023-10-09T06:39:59;18.20;;;12.40;;
3875;SDS011;1953;51.222;6.624;2023-10-09T06:45:16;23.03;;;11.80;;
3875;SDS011;1953;51.222;6.624;2023-10-09T06:49:59;21.20;;;11.63;;
3875;SDS011;1953;51.222;6.624;2023-10-09T06:55:10;23.00;;;12.70;;
3875;SDS011;1953;51.222;6.624;2023-10-09T06:59:59;21.33;;;13.03;;
3875;SDS011;1953;51.222;6.624;2023-10-09T07:05:12;19.40;;;11.57;;
3875;SDS011;1953;51.222;6.624;2023-10-09T07:09:58;25.17;;;12.57;;
3875;SDS011;1953;51.222;6.624;2023-10-09T07:15:13;18.60;;;12.33;;
3875;SDS011;1953;51.222;6.624;2023-10-09T07:20:14;18.67;;;12.27;;
3875;SDS011;1953;51.222;6.624;2023-10-09T07:25:17;23.47;;;11.67;;
3875;SDS011;1953;51.222;6.624;2023-10-09T07:30:08;17.20;;;11.27;;
3875;SDS011;1953;51.222;6.624;2023-10-09T07:35:17;24.50;;;13.20;;
3875;SDS011;1953;51.222;6.624;2023-10-09T07:40:20;24.63;;;13.77;;
3875;SDS011;1953;51.222;6.624;2023-10-09T07:45:12;22.53;;;12.90;;
3875;SDS011;1953;51.222;6.624;2023-10-09T07:50:15;26.80;;;13.33;;
3875;SDS011;1953;51.222;6.624;2023-10-09T07:55:03;20.57;;;13.77;;
3875;SDS011;1953;51.222;6.624;2023-10-09T07:59:55;18.03;;;12.27;;
3875;SDS011;1953;51.222;6.624;2023-10-09T08:04:52;22.37;;;12.43;;
3875;SDS011;1953;51.222;6.624;2023-10-09T08:09:35;21.63;;;14.17;;
3875;SDS011;1953;51.222;6.624;2023-10-09T08:14:29;19.07;;;13.13;;
3875;SDS011;1953;51.222;6.624;2023-10-09T08:19:23;23.47;;;13.73;;
3875;SDS011;1953;51.222;6.624;2023-10-09T08:24:14;24.87;;;13.63;;
3875;SDS011;1953;51.222;6.624;2023-10-09T08:29:10;25.83;;;14.20;;
3875;SDS011;1953;51.222;6.624;2023-10-09T08:34:00;21.93;;;14.10;;
3875;SDS011;1953;51.222;6.624;2023-10-09T08:38:44;22.80;;;13.60;;
3875;SDS011;1953;51.222;6.624;2023-10-09T08:43:27;25.77;;;13.37;;
3875;SDS011;1953;51.222;6.624;2023-10-09T08:48:14;30.40;;;12.70;;
3875;SDS011;1953;51.222;6.624;2023-10-09T08:53:00;27.23;;;13.37;;
3875;SDS011;1953;51.222;6.624;2023-10-09T08:57:44;20.67;;;12.83;;
3875;SDS011;1953;51.222;6.624;2023-10-09T09:02:27;30.87;;;12.90;;
3875;SDS011;1953;51.222;6.624;2023-10-09T09:07:25;28.30;;;13.40;;
3875;SDS011;1953;51.222;6.624;2023-10-09T09:12:11;24.57;;;13.30;;
3875;SDS011;1953;51.222;6.624;2023-10-09T09:16:56;29.33;;;14.13;;
3875;SDS011;1953;51.222;6.624;2023-10-09T09:21:41;24.30;;;14.53;;
3875;SDS011;1953;51.222;6.624;2023-10-09T09:26:32;29.93;;;15.00;;
3875;SDS011;1953;51.222;6.624;2023-10-09T09:31:19;19.00;;;12.03;;
3875;SDS011;1953;51.222;6.624;2023-10-09T09:36:03;22.13;;;13.37;;
3875;SDS011;1953;51.222;6.624;2023-10-09T09:40:46;20.10;;;12.27;;
3875;SDS011;1953;51.222;6.624;2023-10-09T09:45:35;21.47;;;12.90;;
3875;SDS011;1953;51.222;6.624;2023-10-09T09:50:19;21.27;;;12.00;;
3875;SDS011;1953;51.222;6.624;2023-10-09T09:55:06;20.47;;;12.57;;
3875;SDS011;1953;51.222;6.624;2023-10-09T09:59:55;20.73;;;12.27;;
3875;SDS011;1953;51.222;6.624;2023-10-09T10:04:42;21.20;;;11.80;;
3875;SDS011;1953;51.222;6.624;2023-10-09T10:09:37;18.63;;;11.57;;
3875;SDS011;1953;51.222;6.624;2023-10-09T10:14:22;16.60;;;10.80;;
3875;SDS011;1953;51.222;6.624;2023-10-09T10:19:09;20.60;;;10.93;;
3875;SDS011;1953;51.222;6.624;2023-10-09T10:24:04;18.53;;;11.10;;
3875;SDS011;1953;51.222;6.624;2023-10-09T10:29:15;16.50;;;10.97;;
3875;SDS011;1953;51.222;6.624;2023-10-09T10:34:04;19.37;;;11.20;;
3875;SDS011;1953;51.222;6.624;2023-10-09T10:38:58;18.80;;;10.53;;
3875;SDS011;1953;51.222;6.624;2023-10-09T10:43:48;22.30;;;10.90;;
3875;SDS011;1953;51.222;6.624;2023-10-09T10:48:41;18.87;;;11.13;;
3875;SDS011;1953;51.222;6.624;2023-10-09T10:53:27;15.87;;;10.30;;
3875;SDS011;1953;51.222;6.624;2023-10-09T10:58:16;18.40;;;12.33;;
3875;SDS011;1953;51.222;6.624;2023-10-09T11:03:04;16.37;;;10.93;;
3875;SDS011;1953;51.222;6.624;2023-10-09T11:07:58;22.00;;;11.80;;
3875;SDS011;1953;51.222;6.624;2023-10-09T11:12:42;17.60;;;10.77;;
3875;SDS011;1953;51.222;6.624;2023-10-09T11:17:56;19.60;;;10.23;;
3875;SDS011;1953;51.222;6.624;2023-10-09T11:22:45;18.10;;;11.07;;
3875;SDS011;1953;51.222;6.624;2023-10-09T11:27:49;18.10;;;10.67;;
3875;SDS011;1953;51.222;6.624;2023-10-09T11:32:32;17.70;;;11.20;;
3875;SDS011;1953;51.222;6.624;2023-10-09T11:37:20;18.53;;;11.00;;
3875;SDS011;1953;51.222;6.624;2023-10-09T11:42:20;22.50;;;11.50;;
3875;SDS011;1953;51.222;6.624;2023-10-09T11:47:18;15.80;;;10.20;;
3875;SDS011;1953;51.222;6.624;2023-10-09T11:52:13;21.20;;;11.23;;
3875;SDS011;1953;51.222;6.624;2023-10-09T11:57:16;20.67;;;11.63;;
3875;SDS011;1953;51.222;6.624;2023-10-09T12:01:59;20.20;;;11.40;;
3875;SDS011;1953;51.222;6.624;2023-10-09T12:06:43;15.70;;;10.93;;
3875;SDS011;1953;51.222;6.624;2023-10-09T12:11:25;16.23;;;10.17;;
3875;SDS011;1953;51.222;6.624;2023-10-09T12:19:59;15.90;;;10.93;;
3875;SDS011;1953;51.222;6.624;2023-10-09T12:24:44;19.83;;;10.30;;
3875;SDS011;1953;51.222;6.624;2023-10-09T12:29:27;18.07;;;10.17;;
3875;SDS011;1953;51.222;6.624;2023-10-09T12:34:10;17.53;;;10.97;;
3875;SDS011;1953;51.222;6.624;2023-10-09T12:38:58;18.10;;;9.43;;
3875;SDS011;1953;51.222;6.624;2023-10-09T12:43:41;15.67;;;9.67;;
3875;SDS011;1953;51.222;6.624;2023-10-09T12:48:24;13.30;;;9.70;;
3875;SDS011;1953;51.222;6.624;2023-10-09T12:53:07;16.87;;;9.10;;
3875;SDS011;1953;51.222;6.624;2023-10-09T12:57:52;17.33;;;10.00;;
3875;SDS011;1953;51.222;6.624;2023-10-09T13:02:35;17.93;;;10.40;;
3875;SDS011;1953;51.222;6.624;2023-10-09T13:07:18;15.27;;;10.20;;
3875;SDS011;1953;51.222;6.624;2023-10-09T13:12:02;20.40;;;9.80;;
3875;SDS011;1953;51.222;6.624;2023-10-09T13:16:47;16.63;;;10.17;;
3875;SDS011;1953;51.222;6.624;2023-10-09T13:21:31;20.53;;;12.00;;
3875;SDS011;1953;51.222;6.624;2023-10-09T13:26:14;17.30;;;10.60;;
3875;SDS011;1953;51.222;6.624;2023-10-09T13:30:59;20.23;;;11.17;;
3875;SDS011;1953;51.222;6.624;2023-10-09T13:35:46;19.90;;;11.50;;
3875;SDS011;1953;51.222;6.624;2023-10-09T13:40:31;15.63;;;10.57;;
3875;SDS011;1953;51.222;6.624;2023-10-09T13:45:15;23.37;;;12.30;;
3875;SDS011;1953;51.222;6.624;2023-10-09T13:49:58;20.27;;;11.37;;
3875;SDS011;1953;51.222;6.624;2023-10-09T13:54:42;30.57;;;12.40;;
3875;SDS011;1953;51.222;6.624;2023-10-09T13:59:28;19.13;;;12.10;;
3875;SDS011;1953;51.222;6.624;2023-10-09T14:04:11;19.80;;;12.77;;
3875;SDS011;1953;51.222;6.624;2023-10-09T14:08:59;18.30;;;12.30;;
3875;SDS011;1953;51.222;6.624;2023-10-09T14:13:46;20.33;;;11.73;;
3875;SDS011;1953;51.222;6.624;2023-10-09T14:18:29;19.33;;;13.07;;
3875;SDS011;1953;51.222;6.624;2023-10-09T14:23:12;27.93;;;12.87;;
3875;SDS011;1953;51.222;6.624;2023-10-09T14:28:01;19.13;;;11.57;;
3875;SDS011;1953;51.222;6.624;2023-10-09T14:32:49;17.90;;;12.03;;
3875;SDS011;1953;51.222;6.624;2023-10-09T14:37:36;21.17;;;12.03;;
3875;SDS011;1953;51.222;6.624;2023-10-09T14:42:20;19.53;;;12.73;;
3875;SDS011;1953;51.222;6.624;2023-10-09T14:47:05;18.63;;;13.97;;
3875;SDS011;1953;51.222;6.624;2023-10-09T14:51:49;21.13;;;12.77;;
3875;SDS011;1953;51.222;6.624;2023-10-09T14:56:31;16.43;;;12.20;;
3875;SDS011;1953;51.222;6.624;2023-10-09T15:01:17;21.90;;;11.60;;
3875;SDS011;1953;51.222;6.624;2023-10-09T15:06:01;21.03;;;11.47;;
3875;SDS011;1953;51.222;6.624;2023-10-09T15:10:46;22.83;;;12.07;;
3875;SDS011;1953;51.222;6.624;2023-10-09T15:15:29;16.97;;;11.40;;
3875;SDS011;1953;51.222;6.624;2023-10-09T15:20:12;20.20;;;12.30;;
3875;SDS011;1953;51.222;6.624;2023-10-09T15:24:55;20.03;;;13.17;;
3875;SDS011;1953;51.222;6.624;2023-10-09T15:29:39;16.03;;;11.30;;
3875;SDS011;1953;51.222;6.624;2023-10-09T15:34:25;16.70;;;11.60;;
3875;SDS011;1953;51.222;6.624;2023-10-09T15:39:08;16.90;;;12.17;;
3875;SDS011;1953;51.222;6.624;2023-10-09T15:43:52;18.73;;;12.37;;
3875;SDS011;1953;51.222;6.624;2023-10-09T15:48:36;22.93;;;13.53;;
3875;SDS011;1953;51.222;6.624;2023-10-09T15:53:19;24.10;;;13.33;;
3875;SDS011;1953;51.222;6.624;2023-10-09T15:58:04;23.30;;;12.47;;
3875;SDS011;1953;51.222;6.624;2023-10-09T16:02:49;19.00;;;12.70;;
3875;SDS011;1953;51.222;6.624;2023-10-09T16:07:35;20.43;;;13.73;;
3875;SDS011;1953;51.222;6.624;2023-10-09T16:12:18;20.10;;;13.70;;
3875;SDS011;1953;51.222;6.624;2023-10-09T16:17:00;18.87;;;12.90;;
3875;SDS011;1953;51.222;6.624;2023-10-09T16:21:43;21.87;;;13.33;;
3875;SDS011;1953;51.222;6.624;2023-10-09T16:26:29;19.37;;;12.67;;
3875;SDS011;1953;51.222;6.624;2023-10-09T16:31:18;26.13;;;13.40;;
3875;SDS011;1953;51.222;6.624;2023-10-09T16:36:01;24.33;;;13.87;;
3875;SDS011;1953;51.222;6.624;2023-10-09T16:40:44;19.63;;;13.33;;
3875;SDS011;1953;51.222;6.624;2023-10-09T16:45:36;19.83;;;12.90;;
3875;SDS011;1953;51.222;6.624;2023-10-09T16:50:24;20.40;;;12.67;;
3875;SDS011;1953;51.222;6.624;2023-10-09T16:55:08;21.63;;;13.37;;
3875;SDS011;1953;51.222;6.624;2023-10-09T16:59:52;26.80;;;13.30;;
3875;SDS011;1953;51.222;6.624;2023-10-09T17:04:37;21.80;;;12.67;;
3875;SDS011;1953;51.222;6.624;2023-10-09T17:09:20;30.70;;;13.23;;
3875;SDS011;1953;51.222;6.624;2023-10-09T17:14:04;23.67;;;13.70;;
3875;SDS011;1953;51.222;6.624;2023-10-09T17:18:47;20.40;;;13.00;;
3875;SDS011;1953;51.222;6.624;2023-10-09T17:23:31;20.93;;;13.47;;
3875;SDS011;1953;51.222;6.624;2023-10-09T17:28:14;21.90;;;13.30;;
3875;SDS011;1953;51.222;6.624;2023-10-09T17:32:58;21.07;;;14.27;;
3875;SDS011;1953;51.222;6.624;2023-10-09T17:37:40;22.63;;;13.47;;
3875;SDS011;1953;51.222;6.624;2023-10-09T17:42:24;22.43;;;14.60;;
3875;SDS011;1953;51.222;6.624;2023-10-09T17:47:07;26.97;;;15.53;;
3875;SDS011;1953;51.222;6.624;2023-10-09T17:51:49;26.93;;;14.80;;
3875;SDS011;1953;51.222;6.624;2023-10-09T17:56:32;27.93;;;15.97;;
3875;SDS011;1953;51.222;6.624;2023-10-09T18:01:19;22.87;;;14.90;;
3875;SDS011;1953;51.222;6.624;2023-10-09T18:06:05;24.33;;;16.30;;
3875;SDS011;1953;51.222;6.624;2023-10-09T18:10:48;26.23;;;16.33;;
3875;SDS011;1953;51.222;6.624;2023-10-09T18:15:36;25.27;;;15.13;;
3875;SDS011;1953;51.222;6.624;2023-10-09T18:20:20;26.50;;;16.17;;
3875;SDS011;1953;51.222;6.624;2023-10-09T18:25:02;24.60;;;15.87;;
3875;SDS011;1953;51.222;6.624;2023-10-09T18:29:45;21.33;;;15.00;;
3875;SDS011;1953;51.222;6.624;2023-10-09T18:34:29;21.43;;;15.00;;
3875;SDS011;1953;51.222;6.624;2023-10-09T18:39:13;24.57;;;16.07;;
3875;SDS011;1953;51.222;6.624;2023-10-09T18:43:55;26.53;;;16.30;;
3875;SDS011;1953;51.222;6.624;2023-10-09T18:48:41;33.73;;;16.17;;
3875;SDS011;1953;51.222;6.624;2023-10-09T18:53:26;26.97;;;14.57;;
3875;SDS011;1953;51.222;6.624;2023-10-09T18:58:11;22.40;;;15.10;;
3875;SDS011;1953;51.222;6.624;2023-10-09T19:02:59;22.40;;;15.53;;
3875;SDS011;1953;51.222;6.624;2023-10-09T19:07:41;24.97;;;16.33;;
3875;SDS011;1953;51.222;6.624;2023-10-09T19:12:24;25.53;;;16.27;;
3875;SDS011;1953;51.222;6.624;2023-10-09T19:17:08;26.60;;;16.23;;
3875;SDS011;1953;51.222;6.624;2023-10-09T19:21:50;21.57;;;16.00;;
3875;SDS011;1953;51.222;6.624;2023-10-09T19:26:33;23.77;;;15.30;;
3875;SDS011;1953;51.222;6.624;2023-10-09T19:31:16;30.57;;;15.70;;
3875;SDS011;1953;51.222;6.624;2023-10-09T19:36:03;24.67;;;16.80;;
3875;SDS011;1953;51.222;6.624;2023-10-09T19:40:51;24.73;;;16.10;;
3875;SDS011;1953;51.222;6.624;2023-10-09T19:45:34;26.20;;;15.93;;
3875;SDS011;1953;51.222;6.624;2023-10-09T19:50:17;25.30;;;14.93;;
3875;SDS011;1953;51.222;6.624;2023-10-09T19:55:01;32.53;;;18.43;;
3875;SDS011;1953;51.222;6.624;2023-10-09T19:59:44;26.57;;;18.37;;
3875;SDS011;1953;51.222;6.624;2023-10-09T20:04:28;29.07;;;17.73;;
3875;SDS011;1953;51.222;6.624;2023-10-09T20:09:11;25.73;;;17.90;;
3875;SDS011;1953;51.222;6.624;2023-10-09T20:13:55;30.20;;;18.40;;
3875;SDS011;1953;51.222;6.624;2023-10-09T20:18:38;29.40;;;19.93;;
3875;SDS011;1953;51.222;6.624;2023-10-09T20:23:23;32.20;;;20.30;;
3875;SDS011;1953;51.222;6.624;2023-10-09T20:28:06;36.40;;;21.33;;
3875;SDS011;1953;51.222;6.624;2023-10-09T20:32:52;28.30;;;19.67;;
3875;SDS011;1953;51.222;6.624;2023-10-09T20:37:35;30.23;;;19.57;;
3875;SDS011;1953;51.222;6.624;2023-10-09T20:42:17;27.93;;;18.30;;
3875;SDS011;1953;51.222;6.624;2023-10-09T20:47:02;35.57;;;20.13;;
3875;SDS011;1953;51.222;6.624;2023-10-09T20:51:46;29.90;;;19.90;;
3875;SDS011;1953;51.222;6.624;2023-10-09T20:56:28;29.27;;;19.90;;
3875;SDS011;1953;51.222;6.624;2023-10-09T21:01:12;38.63;;;20.60;;
3875;SDS011;1953;51.222;6.624;2023-10-09T21:05:56;29.57;;;20.33;;
3875;SDS011;1953;51.222;6.624;2023-10-09T21:10:43;32.63;;;21.57;;
3875;SDS011;1953;51.222;6.624;2023-10-09T21:15:26;33.97;;;19.17;;
3875;SDS011;1953;51.222;6.624;2023-10-09T21:20:12;30.43;;;20.37;;
3875;SDS011;1953;51.222;6.624;2023-10-09T21:24:58;31.80;;;21.47;;
3875;SDS011;1953;51.222;6.624;2023-10-09T21:29:42;34.80;;;21.83;;
3875;SDS011;1953;51.222;6.624;2023-10-09T21:34:25;36.20;;;22.50;;
3875;SDS011;1953;51.222;6.624;2023-10-09T21:39:07;30.63;;;21.63;;
3875;SDS011;1953;51.222;6.624;2023-10-09T21:43:50;32.67;;;22.23;;
3875;SDS011;1953;51.222;6.624;2023-10-09T21:48:35;37.40;;;23.53;;
3875;SDS011;1953;51.222;6.624;2023-10-09T21:53:19;34.83;;;23.40;;
3875;SDS011;1953;51.222;6.624;2023-10-09T21:58:03;36.07;;;23.30;;
3875;SDS011;1953;51.222;6.624;2023-10-09T22:02:51;37.10;;;24.33;;
3875;SDS011;1953;51.222;6.624;2023-10-09T22:07:35;43.67;;;26.07;;
3875;SDS011;1953;51.222;6.624;2023-10-09T22:12:18;37.60;;;25.40;;
3875;SDS011;1953;51.222;6.624;2023-10-09T22:17:00;39.43;;;26.33;;
3875;SDS011;1953;51.222;6.624;2023-10-09T22:21:44;49.97;;;28.67;;
3875;SDS011;1953;51.222;6.624;2023-10-09T22:26:29;44.23;;;29.87;;
3875;SDS011;1953;51.222;6.624;2023-10-09T22:31:12;45.50;;;31.33;;
3875;SDS011;1953;51.222;6.624;2023-10-09T22:35:56;47.47;;;28.97;;
3875;SDS011;1953;51.222;6.624;2023-10-09T22:40:41;55.17;;;32.07;;
3875;SDS011;1953;51.222;6.624;2023-10-09T22:45:30;53.50;;;32.10;;
3875;SDS011;1953;51.222;6.624;2023-10-09T22:50:14;48.00;;;29.90;;
3875;SDS011;1953;51.222;6.624;2023-10-09T22:55:01;47.10;;;29.83;;
3875;SDS011;1953;51.222;6.624;2023-10-09T22:59:46;45.23;;;28.87;;
3875;SDS011;1953;51.222;6.624;2023-10-09T23:04:32;43.83;;;27.70;;
3875;SDS011;1953;51.222;6.624;2023-10-09T23:09:29;53.50;;;30.53;;
3875;SDS011;1953;51.222;6.624;2023-10-09T23:14:12;48.80;;;30.33;;
3875;SDS011;1953;51.222;6.624;2023-10-09T23:19:04;52.30;;;30.63;;
3875;SDS011;1953;51.222;6.624;2023-10-09T23:24:12;47.73;;;32.10;;
3875;SDS011;1953;51.222;6.624;2023-10-09T23:29:06;44.73;;;30.90;;
3875;SDS011;1953;51.222;6.624;2023-10-09T23:33:50;50.37;;;29.73;;
3875;SDS011;1953;51.222;6.624;2023-10-09T23:38:33;46.30;;;28.83;;
3875;SDS011;1953;51.222;6.624;2023-10-09T23:43:18;44.83;;;29.17;;
3875;SDS011;1953;51.222;6.624;2023-10-09T23:48:04;43.00;;;28.43;;
3875;SDS011;1953;51.222;6.624;2023-10-09T23:52:52;49.13;;;28.97;;
3875;SDS011;1953;51.222;6.624;2023-10-09T23:57:35;45.20;;;29.37;;
